Portada
METAR-TAF:

METAR-TAF

Aeroports :

Siler City, Carolina del Nord, Estats Units d'Amèrica

latitud: 35-42-15N, longitud: 079-30-15W, altitud: 187 m

Observació

L'informe es va fer fa 1 hora i 2 minuts, a les 21:35 UTC
Vent 4 kt del Nord-Est
Temperatura 3°C
Humitat 41%
Pressió 1028 hPa
Visibilitat: 16.1 km
Cel clar

METAR: KSCR 132135Z AUTO 04004KT 10SM CLR 03/M09 A3035 RMK AO2 T00311094

Hora: 17:37 (22:37 UTC)


TAF: manca

Observacions i pronòstics meteorològics de més de 4000 aeroports (METAR i TAF).

Les estacions disponibles són els punts grocs i vermells al mapa.

Posi el ratolí al punt desitjat per veure el nom de l'estació.

Feu clic per veure les observacions i els pronòstics meteorològics.

Per canviar el mapa: feu clic els botons verds amb una creu de color negre per apropar; al botó verd amb un guió per allunyar la imatge; o en les fletxes verdes per a mapes adjacents.


METAR-TAF: